Abel Tasman — PCVM — position and weather

sailwx.info

Track history (hours):
 
Tides and Currents Weather Stations Pressure Air Temp Water Temp Dewpoint Dewpoint Depression Visibility Wind Speed Wind Dir Waves Ship Positions

Abel Tasman (Netherlands)

Last reported at 2019-Aug-24 20:30 UTC. Time now 2019-Aug-24 20:44 UTC.
Position N 54°51' E 010°31'.

Length 38 m; draft 2.4 m.

Type: Sailing vessel. MMSI: 245877000.

Date/timePositionNaut miles runAvg speedWind from/ knotsBaromVisibWave heightAir tempDewpointWater temp
2019-Aug-24 20:30N 54°51' E 010°31'0 0.0
2019-Aug-24 20:01N 54°51' E 010°31'0 0.0
2019-Aug-24 19:27N 54°51' E 010°31'0 0.0
2019-Aug-24 19:00N 54°51' E 010°31'0 0.0
2019-Aug-24 18:27N 54°51' E 010°31'0 0.0
2019-Aug-24 18:00N 54°51' E 010°31'0 0.0
2019-Aug-24 17:31N 54°51' E 010°31'2 3.4
2019-Aug-24 17:01N 54°50' E 010°31'3 6.3
2019-Aug-24 16:31N 54°48' E 010°27'3 5.6
2019-Aug-24 16:00N 54°46' E 010°24'1 2.3
2019-Aug-24 15:30N 54°45' E 010°22'1 2.6
2019-Aug-24 15:00N 54°44' E 010°21'1 2.9
2019-Aug-24 14:31N 54°43' E 010°19'2 3.2
2019-Aug-24 14:00N 54°41' E 010°18'2 3.4
2019-Aug-24 13:30N 54°40' E 010°17'2 3.9
2019-Aug-24 13:01N 54°38' E 010°16'2 3.1
2019-Aug-24 12:30N 54°36' E 010°16'2 3.6
2019-Aug-24 12:00N 54°35' E 010°15'2 3.9
2019-Aug-24 11:30N 54°33' E 010°15'2 4.3
2019-Aug-24 11:00N 54°30' E 010°15'2 4.0
2019-Aug-24 10:31N 54°28' E 010°15'2 3.7
2019-Aug-24 10:00N 54°27' E 010°15'3 6.1
2019-Aug-24 09:31N 54°24' E 010°12'3 5.0
2019-Aug-24 09:00N 54°22' E 010°09'0 0.1
2019-Aug-24 08:28N 54°22' E 010°09'0 0.0
2019-Aug-24 07:58N 54°22' E 010°09'0 0.0
2019-Aug-24 07:26N 54°22' E 010°09'0 0.0
2019-Aug-24 06:58N 54°22' E 010°09'0 0.0
2019-Aug-24 06:28N 54°22' E 010°09'0 0.0
2019-Aug-24 05:58N 54°22' E 010°09'0 0.0
2019-Aug-24 05:28N 54°22' E 010°09'0 0.0
2019-Aug-24 04:59N 54°22' E 010°09'0 0.0
2019-Aug-24 04:29N 54°22' E 010°09'0 0.0
2019-Aug-24 03:59N 54°22' E 010°09'0 0.0
2019-Aug-24 03:29N 54°22' E 010°09'0 0.0
2019-Aug-24 02:59N 54°22' E 010°09'0 0.0
2019-Aug-24 02:29N 54°22' E 010°09'0 0.0
2019-Aug-24 01:59N 54°22' E 010°09'0 0.0
2019-Aug-24 01:29N 54°22' E 010°09'0 0.0
2019-Aug-24 00:59N 54°22' E 010°09'0 0.0
2019-Aug-24 00:29N 54°22' E 010°09'0 0.0
2019-Aug-23 23:59N 54°22' E 010°09'0 0.0
2019-Aug-23 23:29N 54°22' E 010°09'0 0.0
2019-Aug-23 22:59N 54°22' E 010°09'0 0.0
2019-Aug-23 22:29N 54°22' E 010°09'0 0.0
2019-Aug-23 21:56N 54°22' E 010°09'0 0.0
2019-Aug-23 21:29N 54°22' E 010°09'0 0.0
2019-Aug-23 20:59N 54°22' E 010°09'0 0.0
2019-Aug-23 20:29N 54°22' E 010°09'0 0.0
2019-Aug-23 19:53N 54°22' E 010°09'0 0.0
2019-Aug-23 19:29N 54°22' E 010°09'0 0.0
2019-Aug-23 18:59N 54°22' E 010°09'0 0.0
2019-Aug-23 18:29N 54°22' E 010°09'0 0.0
2019-Aug-23 17:59N 54°22' E 010°09'0 0.0
2019-Aug-23 17:29N 54°22' E 010°09'0 0.0
2019-Aug-23 16:56N 54°22' E 010°09'0 0.0
2019-Aug-23 16:29N 54°22' E 010°09'0 0.0
2019-Aug-23 15:59N 54°22' E 010°09'0 0.0
2019-Aug-23 15:29N 54°22' E 010°09'0 0.0
2019-Aug-23 14:56N 54°22' E 010°09'0 0.0
2019-Aug-23 14:29N 54°22' E 010°09'0 0.0
2019-Aug-23 13:59N 54°22' E 010°09'0 0.0
2019-Aug-23 13:29N 54°22' E 010°09'0 0.0
2019-Aug-23 12:59N 54°22' E 010°09'0 0.0
2019-Aug-23 12:29N 54°22' E 010°09'0 0.1
2019-Aug-23 12:00N 54°22' E 010°09'3 5.4
2019-Aug-23 11:30N 54°24' E 010°12'3 6.4
2019-Aug-23 11:00N 54°27' E 010°13'3 5.2
2019-Aug-23 10:30N 54°30' E 010°11'2 4.9
2019-Aug-23 10:00N 54°32' E 010°08'2 4.9
2019-Aug-23 09:30N 54°34' E 010°07'2 4.9
2019-Aug-23 09:00N 54°36' E 010°04'2 4.7
2019-Aug-23 08:30N 54°38' E 010°03'2 3.3
2019-Aug-23 08:00N 54°40' E 010°03'1 1.6
2019-Aug-23 07:30N 54°40' E 010°02'0 0.0
2019-Aug-23 07:00N 54°40' E 010°02'0 0.0
2019-Aug-23 06:30N 54°40' E 010°02'0 0.0
2019-Aug-23 06:00N 54°40' E 010°02'0 0.0
2019-Aug-23 05:30N 54°40' E 010°02'0 0.0
2019-Aug-23 04:59N 54°40' E 010°02'0 0.0
2019-Aug-23 04:30N 54°40' E 010°02'0 0.0
2019-Aug-23 04:00N 54°40' E 010°02'0 0.0
2019-Aug-23 03:30N 54°40' E 010°02'0 0.0
2019-Aug-23 03:00N 54°40' E 010°02'0 0.0
2019-Aug-23 02:30N 54°40' E 010°02'0 0.0
2019-Aug-23 02:00N 54°40' E 010°02'0 0.0
2019-Aug-23 01:30N 54°40' E 010°02'0 0.0
2019-Aug-23 01:00N 54°40' E 010°02'0 0.0
2019-Aug-23 00:30N 54°40' E 010°02'0 0.0
2019-Aug-23 00:00N 54°40' E 010°02'0 0.0
2019-Aug-22 23:30N 54°40' E 010°02'0 0.0
2019-Aug-22 23:00N 54°40' E 010°02'0 0.0
2019-Aug-22 22:30N 54°40' E 010°02'0 0.0
2019-Aug-22 21:59N 54°40' E 010°02'0 0.0
2019-Aug-22 21:30N 54°40' E 010°02'0 0.0
2019-Aug-22 21:00N 54°40' E 010°02'0 0.0
2019-Aug-22 20:30N 54°40' E 010°02'0 0.0
2019-Aug-22 20:00N 54°40' E 010°02'0 0.0
2019-Aug-22 19:30N 54°40' E 010°02'0 0.0
2019-Aug-22 19:00N 54°40' E 010°02'0 0.0
2019-Aug-22 18:30N 54°40' E 010°02'0 0.0
2019-Aug-22 17:59N 54°40' E 010°02'0 0.0
2019-Aug-22 17:30N 54°40' E 010°02'0 0.0
2019-Aug-22 17:00N 54°40' E 010°02'0 0.0
2019-Aug-22 16:30N 54°40' E 010°02'0 0.0
2019-Aug-22 16:00N 54°40' E 010°02'0 1.0
2019-Aug-22 15:30N 54°40' E 010°03'2 3.2
2019-Aug-22 15:00N 54°41' E 010°05'2 4.6
2019-Aug-22 14:30N 54°40' E 010°09'2 3.6
2019-Aug-22 14:00N 54°41' E 010°07'3 5.7
2019-Aug-22 13:29N 54°44' E 010°05'2 3.5
2019-Aug-22 13:00N 54°43' E 010°08'2 3.6
2019-Aug-22 12:30N 54°43' E 010°11'1 3.0
2019-Aug-22 12:00N 54°43' E 010°13'1 3.0
2019-Aug-22 11:30N 54°43' E 010°16'2 3.7
2019-Aug-22 11:00N 54°44' E 010°18'2 4.9
2019-Aug-22 10:30N 54°46' E 010°22'2 4.9
2019-Aug-22 10:00N 54°47' E 010°26'2 4.2
2019-Aug-22 09:30N 54°48' E 010°29'2 4.3
2019-Aug-22 09:00N 54°49' E 010°32'2 4.5
2019-Aug-22 08:30N 54°51' E 010°32'0 0.4
2019-Aug-22 07:59N 54°51' E 010°31'0 0.0
2019-Aug-22 07:29N 54°51' E 010°31'0 0.0
2019-Aug-22 06:59N 54°51' E 010°31'0 0.0
2019-Aug-22 06:29N 54°51' E 010°31'0 0.0
2019-Aug-22 05:59N 54°51' E 010°31'0 0.0
2019-Aug-22 05:26N 54°51' E 010°31'0 0.0
2019-Aug-22 04:59N 54°51' E 010°31'0 0.0
2019-Aug-22 04:29N 54°51' E 010°31'0 0.0
2019-Aug-22 03:59N 54°51' E 010°31'0 0.0
2019-Aug-22 03:29N 54°51' E 010°31'0 0.0
2019-Aug-22 02:56N 54°51' E 010°31'0 0.0
2019-Aug-22 02:26N 54°51' E 010°31'0 0.0
2019-Aug-22 01:59N 54°51' E 010°31'0 0.0
2019-Aug-22 01:29N 54°51' E 010°31'0 0.0
2019-Aug-22 00:59N 54°51' E 010°31'0 0.0
2019-Aug-22 00:29N 54°51' E 010°31'0 0.0
2019-Aug-21 23:59N 54°51' E 010°31'0 0.0
2019-Aug-21 23:26N 54°51' E 010°31'0 0.0
2019-Aug-21 22:59N 54°51' E 010°31'0 0.0
2019-Aug-21 22:29N 54°51' E 010°31'0 0.0
2019-Aug-21 21:59N 54°51' E 010°31'0 0.0
2019-Aug-21 21:29N 54°51' E 010°31'0 0.0
2019-Aug-21 20:59N 54°51' E 010°31'0 0.0
2019-Aug-21 20:29N 54°51' E 010°31'0 0.0
2019-Aug-21 19:59N 54°51' E 010°31'0 0.0
2019-Aug-21 19:29N 54°51' E 010°31'0 0.0
2019-Aug-21 18:59N 54°51' E 010°31'0 0.0
2019-Aug-21 18:29N 54°51' E 010°31'0 0.0
2019-Aug-21 17:59N 54°51' E 010°31'0 0.0
2019-Aug-21 17:29N 54°51' E 010°31'0 0.0
2019-Aug-21 16:59N 54°51' E 010°31'0 0.0
2019-Aug-21 16:30N 54°51' E 010°31'1 2.3
2019-Aug-21 16:00N 54°52' E 010°32'3 6.1
2019-Aug-21 15:30N 54°53' E 010°38'3 6.4
2019-Aug-21 15:00N 54°56' E 010°41'3 6.0
2019-Aug-21 14:30N 54°59' E 010°43'3 5.2
2019-Aug-21 14:00N 54°60' E 010°47'2 3.8
2019-Aug-21 13:30N 55°02' E 010°48'2 4.8
2019-Aug-21 13:00N 55°04' E 010°47'2 4.6
2019-Aug-21 12:30N 55°06' E 010°48'3 6.8
2019-Aug-21 12:00N 55°10' E 010°49'3 5.7
2019-Aug-21 11:27N 55°13' E 010°50'2 2.8
2019-Aug-21 10:51N 55°15' E 010°50'1 1.4
2019-Aug-21 10:09N 55°15' E 010°50'1 5.1
2019-Aug-21 09:56N 55°17' E 010°49'2 0.4
2019-Aug-21 04:39N 55°19' E 010°47'0 0.0
2019-Aug-21 03:27N 55°19' E 010°47'0 0.0
2019-Aug-21 01:54N 55°19' E 010°47'0 0.0
2019-Aug-21 01:24N 55°19' E 010°47'0 0.0
2019-Aug-21 00:57N 55°19' E 010°47'0 0.0
2019-Aug-21 00:30N 55°19' E 010°47'0 0.0
2019-Aug-20 23:09N 55°19' E 010°47'3 0.4
2019-Aug-20 16:50N 55°17' E 010°51'2 5.3
2019-Aug-20 16:24N 55°16' E 010°55'2 3.9
2019-Aug-20 16:00N 55°15' E 010°57'2 4.3
2019-Aug-20 15:28N 55°15' E 011°01'2 4.2
2019-Aug-20 14:55N 55°14' E 011°05'1 2.7
2019-Aug-20 14:29N 55°15' E 011°07'5 3.3
2019-Aug-20 13:01N 55°18' E 011°02'2 3.6
2019-Aug-20 12:35N 55°18' E 011°04'0 2.6
2019-Aug-20 12:25N 55°18' E 011°05'2 3.3
2019-Aug-20 11:55N 55°17' E 011°08'2 3.7
2019-Aug-20 11:28N 55°16' E 011°10'2 5.3
2019-Aug-20 11:00N 55°15' E 011°14'2 3.3
2019-Aug-20 10:30N 55°15' E 011°17'1 1.4
2019-Aug-20 09:57N 55°15' E 011°17'0 0.0
2019-Aug-20 09:30N 55°15' E 011°17'0 0.0
2019-Aug-20 09:00N 55°15' E 011°17'0 0.0
2019-Aug-20 08:30N 55°15' E 011°17'0 0.0
2019-Aug-20 08:00N 55°15' E 011°17'0 0.0
2019-Aug-20 07:24N 55°15' E 011°17'0 0.0
2019-Aug-20 07:00N 55°15' E 011°17'0 0.0
2019-Aug-20 06:21N 55°15' E 011°17'0 0.0
2019-Aug-20 06:00N 55°15' E 011°17'0 0.0
2019-Aug-20 05:30N 55°15' E 011°17'0 0.0
2019-Aug-20 05:00N 55°15' E 011°17'0 0.0
2019-Aug-20 04:30N 55°15' E 011°17'0 0.0
2019-Aug-20 04:00N 55°15' E 011°17'0 0.0
2019-Aug-20 03:30N 55°15' E 011°17'0 0.0
2019-Aug-20 03:00N 55°15' E 011°17'0 0.0
2019-Aug-20 02:27N 55°15' E 011°17'0 0.0
2019-Aug-20 02:00N 55°15' E 011°17'0 0.0
2019-Aug-20 01:27N 55°15' E 011°17'0 0.0
2019-Aug-20 01:00N 55°15' E 011°17'0 0.0
2019-Aug-20 00:30N 55°15' E 011°17'0 0.0
2019-Aug-20 00:00N 55°15' E 011°17'0 0.0
2019-Aug-19 23:24N 55°15' E 011°17'0 0.0
2019-Aug-19 23:00N 55°15' E 011°17'0 0.0
2019-Aug-19 22:30N 55°15' E 011°17'0 0.0
2019-Aug-19 22:00N 55°15' E 011°17'0 0.0
2019-Aug-19 21:24N 55°15' E 011°17'0 0.0
2019-Aug-19 21:00N 55°15' E 011°17'0 0.0
2019-Aug-19 20:30N 55°15' E 011°17'0 0.0
2019-Aug-19 19:54N 55°15' E 011°17'0 0.0
2019-Aug-19 19:24N 55°15' E 011°17'0 0.0
2019-Aug-19 18:57N 55°15' E 011°17'0 0.0
2019-Aug-19 18:27N 55°15' E 011°17'0 0.0
2019-Aug-19 17:51N 55°15' E 011°17'0 0.0
2019-Aug-19 17:27N 55°15' E 011°17'0 0.0
2019-Aug-19 17:00N 55°15' E 011°17'0 0.0
2019-Aug-19 16:30N 55°15' E 011°17'0 0.0
2019-Aug-19 16:00N 55°15' E 011°17'0 0.0
2019-Aug-19 15:30N 55°15' E 011°17'0 0.0
2019-Aug-19 15:00N 55°15' E 011°17'0 0.0
2019-Aug-19 14:21N 55°15' E 011°17'0 0.0
2019-Aug-19 13:57N 55°15' E 011°17'0 0.0
2019-Aug-19 13:30N 55°15' E 011°17'1 2.0
2019-Aug-19 13:00N 55°14' E 011°16'4 6.3
2019-Aug-19 12:26N 55°17' E 011°12'1 1.6
2019-Aug-19 12:00N 55°17' E 011°11'4 7.8
2019-Aug-19 11:30N 55°14' E 011°13'4 7.8
2019-Aug-19 11:00N 55°10' E 011°16'4 7.6
2019-Aug-19 10:30N 55°07' E 011°19'4 7.1
2019-Aug-19 10:00N 55°04' E 011°23'3 6.8
2019-Aug-19 09:30N 55°01' E 011°26'3 6.7
2019-Aug-19 09:00N 54°58' E 011°29'1 1.9
2019-Aug-19 08:29N 54°58' E 011°31'0 0.0
2019-Aug-19 07:59N 54°58' E 011°31'0 0.0
2019-Aug-19 07:29N 54°58' E 011°31'0 0.0
2019-Aug-19 06:59N 54°58' E 011°31'0 0.0
2019-Aug-19 06:29N 54°58' E 011°31'0 0.0
2019-Aug-19 05:59N 54°58' E 011°31'0 0.0
2019-Aug-19 05:29N 54°58' E 011°31'0 0.0
2019-Aug-19 04:59N 54°58' E 011°31'0 0.0
2019-Aug-19 04:29N 54°58' E 011°31'0 0.0
2019-Aug-19 03:59N 54°58' E 011°31'0 0.0
2019-Aug-19 03:26N 54°58' E 011°31'0 0.0
2019-Aug-19 02:59N 54°58' E 011°31'0 0.0
2019-Aug-19 02:29N 54°58' E 011°31'0 0.0
2019-Aug-19 01:59N 54°58' E 011°31'0 0.0
2019-Aug-19 01:29N 54°58' E 011°31'0 0.0
2019-Aug-19 00:59N 54°58' E 011°31'0 0.0
2019-Aug-19 00:29N 54°58' E 011°31'0 0.0
2019-Aug-18 23:59N 54°58' E 011°31'0 0.0
2019-Aug-18 23:29N 54°58' E 011°31'0 0.0
2019-Aug-18 22:59N 54°58' E 011°31'0 0.0
2019-Aug-18 22:29N 54°58' E 011°31'0 0.0
2019-Aug-18 21:59N 54°58' E 011°31'0 0.0
2019-Aug-18 21:29N 54°58' E 011°31'0 0.0
2019-Aug-18 20:59N 54°58' E 011°31'0 0.0
2019-Aug-18 20:29N 54°58' E 011°31'0 0.0
2019-Aug-18 19:59N 54°58' E 011°31'0 0.0
2019-Aug-18 19:29N 54°58' E 011°31'0 0.0
2019-Aug-18 18:59N 54°58' E 011°31'0 0.0
2019-Aug-18 18:29N 54°58' E 011°31'0 0.0
2019-Aug-18 17:59N 54°58' E 011°31'0 0.0
2019-Aug-18 17:29N 54°58' E 011°31'0 0.0
2019-Aug-18 16:59N 54°58' E 011°31'0 0.0
2019-Aug-18 16:29N 54°58' E 011°31'0 0.0
2019-Aug-18 15:59N 54°58' E 011°31'1 2.4
2019-Aug-18 15:30N 54°59' E 011°29'2 4.4
2019-Aug-18 15:00N 55°00' E 011°30'3 6.4
2019-Aug-18 14:30N 55°00' E 011°36'3 6.7
2019-Aug-18 14:00N 55°00' E 011°42'3 6.2
2019-Aug-18 13:30N 55°00' E 011°47'2 3.0
2019-Aug-18 12:50N 54°59' E 011°50'1 3.4
2019-Aug-18 12:29N 54°58' E 011°52'4 3.4
2019-Aug-18 11:19N 54°57' E 011°58'9 0.6
2019-Aug-17 19:00N 54°49' E 012°08'1 1.4
2019-Aug-17 18:30N 54°49' E 012°09'6 5.1
2019-Aug-17 17:20N 54°43' E 012°13'2 4.0
2019-Aug-17 16:52N 54°41' E 012°13'2 4.6
2019-Aug-17 16:30N 54°40' E 012°14'3 6.0
2019-Aug-17 16:00N 54°37' E 012°16'2 4.1
2019-Aug-17 15:30N 54°35' E 012°18'3 5.3
2019-Aug-17 14:59N 54°33' E 012°20'4 4.8
2019-Aug-17 14:13N 54°29' E 012°21'1 2.9
2019-Aug-17 14:00N 54°29' E 012°20'2 3.2
2019-Aug-17 13:29N 54°28' E 012°18'2 3.2
2019-Aug-17 13:00N 54°26' E 012°17'4 4.7
2019-Aug-17 12:16N 54°24' E 012°13'2 4.3
2019-Aug-17 11:53N 54°22' E 012°11'2 4.8
2019-Aug-17 11:29N 54°21' E 012°09'4 4.9
2019-Aug-17 10:39N 54°17' E 012°05'1 5.2
2019-Aug-17 10:30N 54°17' E 012°04'11 5.3
2019-Aug-17 08:22N 54°06' E 012°07'0 0.1
2019-Aug-17 06:58N 54°06' E 012°08'0 0.0
2019-Aug-17 04:25N 54°06' E 012°08'0 0.0
2019-Aug-17 01:13N 54°06' E 012°08'0 0.0
2019-Aug-16 23:13N 54°06' E 012°08'0 0.0
2019-Aug-16 22:55N 54°06' E 012°08'0 0.0
2019-Aug-16 21:28N 54°06' E 012°08'0 0.0
2019-Aug-16 20:22N 54°06' E 012°08'0 0.0
2019-Aug-16 19:58N 54°06' E 012°08'0 0.0
2019-Aug-16 19:28N 54°06' E 012°08'0 0.0
2019-Aug-16 17:52N 54°06' E 012°08'0 0.0
2019-Aug-16 16:25N 54°06' E 012°08'0 0.0
2019-Aug-16 14:58N 54°06' E 012°08'0 0.0
2019-Aug-16 12:29N 54°06' E 012°08'2 3.9
2019-Aug-16 12:00N 54°07' E 012°06'12 7.0
2019-Aug-16 10:14N 54°19' E 012°01'1 4.8
2019-Aug-16 10:00N 54°20' E 012°01'5 7.0
2019-Aug-16 09:18N 54°16' E 012°04'2 7.6
2019-Aug-16 08:59N 54°13' E 012°05'2 0.8
2019-Aug-16 05:44N 54°11' E 012°06'0 0.0
2019-Aug-16 05:29N 54°11' E 012°06'0 0.0
2019-Aug-16 01:59N 54°11' E 012°06'0 0.0
2019-Aug-16 01:20N 54°11' E 012°06'0 0.0
2019-Aug-15 23:44N 54°11' E 012°06'0 0.0
2019-Aug-15 23:29N 54°11' E 012°06'0 0.0
2019-Aug-15 21:35N 54°11' E 012°06'0 0.0
2019-Aug-15 20:29N 54°11' E 012°06'0 0.0
2019-Aug-15 19:59N 54°11' E 012°06'0 0.0
2019-Aug-15 18:44N 54°11' E 012°06'1 3.1
2019-Aug-15 18:30N 54°12' E 012°06'2 3.9
2019-Aug-15 17:54N 54°13' E 012°02'7 5.3
2019-Aug-15 16:31N 54°16' E 011°51'0 5.2
2019-Aug-15 16:28N 54°16' E 011°50'2 5.3
2019-Aug-15 16:00N 54°17' E 011°46'12 5.6
2019-Aug-15 13:54N 54°22' E 011°28'2 5.2
2019-Aug-15 13:28N 54°22' E 011°24'2 4.0
2019-Aug-15 13:00N 54°23' E 011°21'3 5.0
2019-Aug-15 12:30N 54°23' E 011°17'2 3.4
2019-Aug-15 12:00N 54°24' E 011°14'2 3.8
2019-Aug-15 11:30N 54°25' E 011°11'0 0.6
2019-Aug-15 10:59N 54°25' E 011°11'0 0.0
2019-Aug-15 10:29N 54°25' E 011°11'0 0.0
2019-Aug-15 09:53N 54°25' E 011°11'0 0.0
2019-Aug-15 09:23N 54°25' E 011°11'0 0.0
2019-Aug-15 08:59N 54°25' E 011°11'0 0.0
2019-Aug-15 08:20N 54°25' E 011°11'0 0.0
2019-Aug-15 07:59N 54°25' E 011°11'0 0.0
2019-Aug-15 07:26N 54°25' E 011°11'0 0.0
2019-Aug-15 06:53N 54°25' E 011°11'0 0.0
2019-Aug-15 06:29N 54°25' E 011°11'0 0.0
2019-Aug-15 05:47N 54°25' E 011°11'0 0.0
2019-Aug-15 05:20N 54°25' E 011°11'0 0.0
2019-Aug-15 04:53N 54°25' E 011°11'0 0.0
2019-Aug-15 04:29N 54°25' E 011°11'0 0.0
2019-Aug-15 03:56N 54°25' E 011°11'0 0.0
2019-Aug-15 03:26N 54°25' E 011°11'0 0.0
2019-Aug-15 02:59N 54°25' E 011°11'0 0.0
2019-Aug-15 02:20N 54°25' E 011°11'0 0.0
2019-Aug-15 01:59N 54°25' E 011°11'0 0.0
2019-Aug-15 01:26N 54°25' E 011°11'0 0.0
2019-Aug-15 00:50N 54°25' E 011°11'0 0.0
2019-Aug-15 00:23N 54°25' E 011°11'0 0.0
2019-Aug-14 23:44N 54°25' E 011°11'0 0.0
2019-Aug-14 23:26N 54°25' E 011°11'0 0.0
2019-Aug-14 22:56N 54°25' E 011°11'0 0.0
2019-Aug-14 22:26N 54°25' E 011°11'0 0.0
2019-Aug-14 21:59N 54°25' E 011°11'0 0.0
2019-Aug-14 21:14N 54°25' E 011°11'  
Track history (hours):
 
Tides and Currents Weather Stations Pressure Air Temp Water Temp Dewpoint Dewpoint Depression Visibility Wind Speed Wind Dir Waves Ship Positions

Abel Tasman (Netherlands)

Last reported at 2019-Aug-24 20:30 UTC. Time now 2019-Aug-24 20:44 UTC.
Position N 54°51' E 010°31'.

Length 38 m; draft 2.4 m.

Type: Sailing vessel. MMSI: 245877000.

Date/timePositionNaut miles runAvg speedWind from/ knotsBaromVisibWave heightAir tempDewpointWater temp
2019-Aug-24 20:30N 54°51' E 010°31'0 0.0
2019-Aug-24 20:01N 54°51' E 010°31'0 0.0
2019-Aug-24 19:27N 54°51' E 010°31'0 0.0
2019-Aug-24 19:00N 54°51' E 010°31'0 0.0
2019-Aug-24 18:27N 54°51' E 010°31'0 0.0
2019-Aug-24 18:00N 54°51' E 010°31'0 0.0
2019-Aug-24 17:31N 54°51' E 010°31'2 3.4
2019-Aug-24 17:01N 54°50' E 010°31'3 6.3
2019-Aug-24 16:31N 54°48' E 010°27'3 5.6
2019-Aug-24 16:00N 54°46' E 010°24'1 2.3
2019-Aug-24 15:30N 54°45' E 010°22'1 2.6
2019-Aug-24 15:00N 54°44' E 010°21'1 2.9
2019-Aug-24 14:31N 54°43' E 010°19'2 3.2
2019-Aug-24 14:00N 54°41' E 010°18'2 3.4
2019-Aug-24 13:30N 54°40' E 010°17'2 3.9
2019-Aug-24 13:01N 54°38' E 010°16'2 3.1
2019-Aug-24 12:30N 54°36' E 010°16'2 3.6
2019-Aug-24 12:00N 54°35' E 010°15'2 3.9
2019-Aug-24 11:30N 54°33' E 010°15'2 4.3
2019-Aug-24 11:00N 54°30' E 010°15'2 4.0
2019-Aug-24 10:31N 54°28' E 010°15'2 3.7
2019-Aug-24 10:00N 54°27' E 010°15'3 6.1
2019-Aug-24 09:31N 54°24' E 010°12'3 5.0
2019-Aug-24 09:00N 54°22' E 010°09'0 0.1
2019-Aug-24 08:28N 54°22' E 010°09'0 0.0
2019-Aug-24 07:58N 54°22' E 010°09'0 0.0
2019-Aug-24 07:26N 54°22' E 010°09'0 0.0
2019-Aug-24 06:58N 54°22' E 010°09'0 0.0
2019-Aug-24 06:28N 54°22' E 010°09'0 0.0
2019-Aug-24 05:58N 54°22' E 010°09'0 0.0
2019-Aug-24 05:28N 54°22' E 010°09'0 0.0
2019-Aug-24 04:59N 54°22' E 010°09'0 0.0
2019-Aug-24 04:29N 54°22' E 010°09'0 0.0
2019-Aug-24 03:59N 54°22' E 010°09'0 0.0
2019-Aug-24 03:29N 54°22' E 010°09'0 0.0
2019-Aug-24 02:59N 54°22' E 010°09'0 0.0
2019-Aug-24 02:29N 54°22' E 010°09'0 0.0
2019-Aug-24 01:59N 54°22' E 010°09'0 0.0
2019-Aug-24 01:29N 54°22' E 010°09'0 0.0
2019-Aug-24 00:59N 54°22' E 010°09'0 0.0
2019-Aug-24 00:29N 54°22' E 010°09'0 0.0
2019-Aug-23 23:59N 54°22' E 010°09'0 0.0
2019-Aug-23 23:29N 54°22' E 010°09'0 0.0
2019-Aug-23 22:59N 54°22' E 010°09'0 0.0
2019-Aug-23 22:29N 54°22' E 010°09'0 0.0
2019-Aug-23 21:56N 54°22' E 010°09'0 0.0
2019-Aug-23 21:29N 54°22' E 010°09'0 0.0
2019-Aug-23 20:59N 54°22' E 010°09'0 0.0
2019-Aug-23 20:29N 54°22' E 010°09'0 0.0
2019-Aug-23 19:53N 54°22' E 010°09'0 0.0
2019-Aug-23 19:29N 54°22' E 010°09'0 0.0
2019-Aug-23 18:59N 54°22' E 010°09'0 0.0
2019-Aug-23 18:29N 54°22' E 010°09'0 0.0
2019-Aug-23 17:59N 54°22' E 010°09'0 0.0
2019-Aug-23 17:29N 54°22' E 010°09'0 0.0
2019-Aug-23 16:56N 54°22' E 010°09'0 0.0
2019-Aug-23 16:29N 54°22' E 010°09'0 0.0
2019-Aug-23 15:59N 54°22' E 010°09'0 0.0
2019-Aug-23 15:29N 54°22' E 010°09'0 0.0
2019-Aug-23 14:56N 54°22' E 010°09'0 0.0
2019-Aug-23 14:29N 54°22' E 010°09'0 0.0
2019-Aug-23 13:59N 54°22' E 010°09'0 0.0
2019-Aug-23 13:29N 54°22' E 010°09'0 0.0
2019-Aug-23 12:59N 54°22' E 010°09'0 0.0
2019-Aug-23 12:29N 54°22' E 010°09'0 0.1
2019-Aug-23 12:00N 54°22' E 010°09'3 5.4
2019-Aug-23 11:30N 54°24' E 010°12'3 6.4
2019-Aug-23 11:00N 54°27' E 010°13'3 5.2
2019-Aug-23 10:30N 54°30' E 010°11'2 4.9
2019-Aug-23 10:00N 54°32' E 010°08'2 4.9
2019-Aug-23 09:30N 54°34' E 010°07'2 4.9
2019-Aug-23 09:00N 54°36' E 010°04'2 4.7
2019-Aug-23 08:30N 54°38' E 010°03'2 3.3
2019-Aug-23 08:00N 54°40' E 010°03'1 1.6
2019-Aug-23 07:30N 54°40' E 010°02'0 0.0
2019-Aug-23 07:00N 54°40' E 010°02'0 0.0
2019-Aug-23 06:30N 54°40' E 010°02'0 0.0
2019-Aug-23 06:00N 54°40' E 010°02'0 0.0
2019-Aug-23 05:30N 54°40' E 010°02'0 0.0
2019-Aug-23 04:59N 54°40' E 010°02'0 0.0
2019-Aug-23 04:30N 54°40' E 010°02'0 0.0
2019-Aug-23 04:00N 54°40' E 010°02'0 0.0
2019-Aug-23 03:30N 54°40' E 010°02'0 0.0
2019-Aug-23 03:00N 54°40' E 010°02'0 0.0
2019-Aug-23 02:30N 54°40' E 010°02'0 0.0
2019-Aug-23 02:00N 54°40' E 010°02'0 0.0
2019-Aug-23 01:30N 54°40' E 010°02'0 0.0
2019-Aug-23 01:00N 54°40' E 010°02'0 0.0
2019-Aug-23 00:30N 54°40' E 010°02'0 0.0
2019-Aug-23 00:00N 54°40' E 010°02'0 0.0
2019-Aug-22 23:30N 54°40' E 010°02'0 0.0
2019-Aug-22 23:00N 54°40' E 010°02'0 0.0
2019-Aug-22 22:30N 54°40' E 010°02'0 0.0
2019-Aug-22 21:59N 54°40' E 010°02'0 0.0
2019-Aug-22 21:30N 54°40' E 010°02'0 0.0
2019-Aug-22 21:00N 54°40' E 010°02'0 0.0
2019-Aug-22 20:30N 54°40' E 010°02'0 0.0
2019-Aug-22 20:00N 54°40' E 010°02'0 0.0
2019-Aug-22 19:30N 54°40' E 010°02'0 0.0
2019-Aug-22 19:00N 54°40' E 010°02'0 0.0
2019-Aug-22 18:30N 54°40' E 010°02'0 0.0
2019-Aug-22 17:59N 54°40' E 010°02'0 0.0
2019-Aug-22 17:30N 54°40' E 010°02'0 0.0
2019-Aug-22 17:00N 54°40' E 010°02'0 0.0
2019-Aug-22 16:30N 54°40' E 010°02'0 0.0
2019-Aug-22 16:00N 54°40' E 010°02'0 1.0
2019-Aug-22 15:30N 54°40' E 010°03'2 3.2
2019-Aug-22 15:00N 54°41' E 010°05'2 4.6
2019-Aug-22 14:30N 54°40' E 010°09'2 3.6
2019-Aug-22 14:00N 54°41' E 010°07'3 5.7
2019-Aug-22 13:29N 54°44' E 010°05'2 3.5
2019-Aug-22 13:00N 54°43' E 010°08'2 3.6
2019-Aug-22 12:30N 54°43' E 010°11'1 3.0
2019-Aug-22 12:00N 54°43' E 010°13'1 3.0
2019-Aug-22 11:30N 54°43' E 010°16'2 3.7
2019-Aug-22 11:00N 54°44' E 010°18'2 4.9
2019-Aug-22 10:30N 54°46' E 010°22'2 4.9
2019-Aug-22 10:00N 54°47' E 010°26'2 4.2
2019-Aug-22 09:30N 54°48' E 010°29'2 4.3
2019-Aug-22 09:00N 54°49' E 010°32'2 4.5
2019-Aug-22 08:30N 54°51' E 010°32'0 0.4
2019-Aug-22 07:59N 54°51' E 010°31'0 0.0
2019-Aug-22 07:29N 54°51' E 010°31'0 0.0
2019-Aug-22 06:59N 54°51' E 010°31'0 0.0
2019-Aug-22 06:29N 54°51' E 010°31'0 0.0
2019-Aug-22 05:59N 54°51' E 010°31'0 0.0
2019-Aug-22 05:26N 54°51' E 010°31'0 0.0
2019-Aug-22 04:59N 54°51' E 010°31'0 0.0
2019-Aug-22 04:29N 54°51' E 010°31'0 0.0
2019-Aug-22 03:59N 54°51' E 010°31'0 0.0
2019-Aug-22 03:29N 54°51' E 010°31'0 0.0
2019-Aug-22 02:56N 54°51' E 010°31'0 0.0
2019-Aug-22 02:26N 54°51' E 010°31'0 0.0
2019-Aug-22 01:59N 54°51' E 010°31'0 0.0
2019-Aug-22 01:29N 54°51' E 010°31'0 0.0
2019-Aug-22 00:59N 54°51' E 010°31'0 0.0
2019-Aug-22 00:29N 54°51' E 010°31'0 0.0
2019-Aug-21 23:59N 54°51' E 010°31'0 0.0
2019-Aug-21 23:26N 54°51' E 010°31'0 0.0
2019-Aug-21 22:59N 54°51' E 010°31'0 0.0
2019-Aug-21 22:29N 54°51' E 010°31'0 0.0
2019-Aug-21 21:59N 54°51' E 010°31'0 0.0
2019-Aug-21 21:29N 54°51' E 010°31'0 0.0
2019-Aug-21 20:59N 54°51' E 010°31'0 0.0
2019-Aug-21 20:29N 54°51' E 010°31'0 0.0
2019-Aug-21 19:59N 54°51' E 010°31'0 0.0
2019-Aug-21 19:29N 54°51' E 010°31'0 0.0
2019-Aug-21 18:59N 54°51' E 010°31'0 0.0
2019-Aug-21 18:29N 54°51' E 010°31'0 0.0
2019-Aug-21 17:59N 54°51' E 010°31'0 0.0
2019-Aug-21 17:29N 54°51' E 010°31'0 0.0
2019-Aug-21 16:59N 54°51' E 010°31'0 0.0
2019-Aug-21 16:30N 54°51' E 010°31'1 2.3
2019-Aug-21 16:00N 54°52' E 010°32'3 6.1
2019-Aug-21 15:30N 54°53' E 010°38'3 6.4
2019-Aug-21 15:00N 54°56' E 010°41'3 6.0
2019-Aug-21 14:30N 54°59' E 010°43'3 5.2
2019-Aug-21 14:00N 54°60' E 010°47'2 3.8
2019-Aug-21 13:30N 55°02' E 010°48'2 4.8
2019-Aug-21 13:00N 55°04' E 010°47'2 4.6
2019-Aug-21 12:30N 55°06' E 010°48'3 6.8
2019-Aug-21 12:00N 55°10' E 010°49'3 5.7
2019-Aug-21 11:27N 55°13' E 010°50'2 2.8
2019-Aug-21 10:51N 55°15' E 010°50'1 1.4
2019-Aug-21 10:09N 55°15' E 010°50'1 5.1
2019-Aug-21 09:56N 55°17' E 010°49'2 0.4
2019-Aug-21 04:39N 55°19' E 010°47'0 0.0
2019-Aug-21 03:27N 55°19' E 010°47'0 0.0
2019-Aug-21 01:54N 55°19' E 010°47'0 0.0
2019-Aug-21 01:24N 55°19' E 010°47'0 0.0
2019-Aug-21 00:57N 55°19' E 010°47'0 0.0
2019-Aug-21 00:30N 55°19' E 010°47'0 0.0
2019-Aug-20 23:09N 55°19' E 010°47'3 0.4
2019-Aug-20 16:50N 55°17' E 010°51'2 5.3
2019-Aug-20 16:24N 55°16' E 010°55'2 3.9
2019-Aug-20 16:00N 55°15' E 010°57'2 4.3
2019-Aug-20 15:28N 55°15' E 011°01'2 4.2
2019-Aug-20 14:55N 55°14' E 011°05'1 2.7
2019-Aug-20 14:29N 55°15' E 011°07'5 3.3
2019-Aug-20 13:01N 55°18' E 011°02'2 3.6
2019-Aug-20 12:35N 55°18' E 011°04'0 2.6
2019-Aug-20 12:25N 55°18' E 011°05'2 3.3
2019-Aug-20 11:55N 55°17' E 011°08'2 3.7
2019-Aug-20 11:28N 55°16' E 011°10'2 5.3
2019-Aug-20 11:00N 55°15' E 011°14'2 3.3
2019-Aug-20 10:30N 55°15' E 011°17'1 1.4
2019-Aug-20 09:57N 55°15' E 011°17'0 0.0
2019-Aug-20 09:30N 55°15' E 011°17'0 0.0
2019-Aug-20 09:00N 55°15' E 011°17'0 0.0
2019-Aug-20 08:30N 55°15' E 011°17'0 0.0
2019-Aug-20 08:00N 55°15' E 011°17'0 0.0
2019-Aug-20 07:24N 55°15' E 011°17'0 0.0
2019-Aug-20 07:00N 55°15' E 011°17'0 0.0
2019-Aug-20 06:21N 55°15' E 011°17'0 0.0
2019-Aug-20 06:00N 55°15' E 011°17'0 0.0
2019-Aug-20 05:30N 55°15' E 011°17'0 0.0
2019-Aug-20 05:00N 55°15' E 011°17'0 0.0
2019-Aug-20 04:30N 55°15' E 011°17'0 0.0
2019-Aug-20 04:00N 55°15' E 011°17'0 0.0
2019-Aug-20 03:30N 55°15' E 011°17'0 0.0
2019-Aug-20 03:00N 55°15' E 011°17'0 0.0
2019-Aug-20 02:27N 55°15' E 011°17'0 0.0
2019-Aug-20 02:00N 55°15' E 011°17'0 0.0
2019-Aug-20 01:27N 55°15' E 011°17'0 0.0
2019-Aug-20 01:00N 55°15' E 011°17'0 0.0
2019-Aug-20 00:30N 55°15' E 011°17'0 0.0
2019-Aug-20 00:00N 55°15' E 011°17'0 0.0
2019-Aug-19 23:24N 55°15' E 011°17'0 0.0
2019-Aug-19 23:00N 55°15' E 011°17'0 0.0
2019-Aug-19 22:30N 55°15' E 011°17'0 0.0
2019-Aug-19 22:00N 55°15' E 011°17'0 0.0
2019-Aug-19 21:24N 55°15' E 011°17'0 0.0
2019-Aug-19 21:00N 55°15' E 011°17'0 0.0
2019-Aug-19 20:30N 55°15' E 011°17'0 0.0
2019-Aug-19 19:54N 55°15' E 011°17'0 0.0
2019-Aug-19 19:24N 55°15' E 011°17'0 0.0
2019-Aug-19 18:57N 55°15' E 011°17'0 0.0
2019-Aug-19 18:27N 55°15' E 011°17'0 0.0
2019-Aug-19 17:51N 55°15' E 011°17'0 0.0
2019-Aug-19 17:27N 55°15' E 011°17'0 0.0
2019-Aug-19 17:00N 55°15' E 011°17'0 0.0
2019-Aug-19 16:30N 55°15' E 011°17'0 0.0
2019-Aug-19 16:00N 55°15' E 011°17'0 0.0
2019-Aug-19 15:30N 55°15' E 011°17'0 0.0
2019-Aug-19 15:00N 55°15' E 011°17'0 0.0
2019-Aug-19 14:21N 55°15' E 011°17'0 0.0
2019-Aug-19 13:57N 55°15' E 011°17'0 0.0
2019-Aug-19 13:30N 55°15' E 011°17'1 2.0
2019-Aug-19 13:00N 55°14' E 011°16'4 6.3
2019-Aug-19 12:26N 55°17' E 011°12'1 1.6
2019-Aug-19 12:00N 55°17' E 011°11'4 7.8
2019-Aug-19 11:30N 55°14' E 011°13'4 7.8
2019-Aug-19 11:00N 55°10' E 011°16'4 7.6
2019-Aug-19 10:30N 55°07' E 011°19'4 7.1
2019-Aug-19 10:00N 55°04' E 011°23'3 6.8
2019-Aug-19 09:30N 55°01' E 011°26'3 6.7
2019-Aug-19 09:00N 54°58' E 011°29'1 1.9
2019-Aug-19 08:29N 54°58' E 011°31'0 0.0
2019-Aug-19 07:59N 54°58' E 011°31'0 0.0
2019-Aug-19 07:29N 54°58' E 011°31'0 0.0
2019-Aug-19 06:59N 54°58' E 011°31'0 0.0
2019-Aug-19 06:29N 54°58' E 011°31'0 0.0
2019-Aug-19 05:59N 54°58' E 011°31'0 0.0
2019-Aug-19 05:29N 54°58' E 011°31'0 0.0
2019-Aug-19 04:59N 54°58' E 011°31'0 0.0
2019-Aug-19 04:29N 54°58' E 011°31'0 0.0
2019-Aug-19 03:59N 54°58' E 011°31'0 0.0
2019-Aug-19 03:26N 54°58' E 011°31'0 0.0
2019-Aug-19 02:59N 54°58' E 011°31'0 0.0
2019-Aug-19 02:29N 54°58' E 011°31'0 0.0
2019-Aug-19 01:59N 54°58' E 011°31'0 0.0
2019-Aug-19 01:29N 54°58' E 011°31'0 0.0
2019-Aug-19 00:59N 54°58' E 011°31'0 0.0
2019-Aug-19 00:29N 54°58' E 011°31'0 0.0
2019-Aug-18 23:59N 54°58' E 011°31'0 0.0
2019-Aug-18 23:29N 54°58' E 011°31'0 0.0
2019-Aug-18 22:59N 54°58' E 011°31'0 0.0
2019-Aug-18 22:29N 54°58' E 011°31'0 0.0
2019-Aug-18 21:59N 54°58' E 011°31'0 0.0
2019-Aug-18 21:29N 54°58' E 011°31'0 0.0
2019-Aug-18 20:59N 54°58' E 011°31'0 0.0
2019-Aug-18 20:29N 54°58' E 011°31'0 0.0
2019-Aug-18 19:59N 54°58' E 011°31'0 0.0
2019-Aug-18 19:29N 54°58' E 011°31'0 0.0
2019-Aug-18 18:59N 54°58' E 011°31'0 0.0
2019-Aug-18 18:29N 54°58' E 011°31'0 0.0
2019-Aug-18 17:59N 54°58' E 011°31'0 0.0
2019-Aug-18 17:29N 54°58' E 011°31'0 0.0
2019-Aug-18 16:59N 54°58' E 011°31'0 0.0
2019-Aug-18 16:29N 54°58' E 011°31'0 0.0
2019-Aug-18 15:59N 54°58' E 011°31'1 2.4
2019-Aug-18 15:30N 54°59' E 011°29'2 4.4
2019-Aug-18 15:00N 55°00' E 011°30'3 6.4
2019-Aug-18 14:30N 55°00' E 011°36'3 6.7
2019-Aug-18 14:00N 55°00' E 011°42'3 6.2
2019-Aug-18 13:30N 55°00' E 011°47'2 3.0
2019-Aug-18 12:50N 54°59' E 011°50'1 3.4
2019-Aug-18 12:29N 54°58' E 011°52'4 3.4
2019-Aug-18 11:19N 54°57' E 011°58'9 0.6
2019-Aug-17 19:00N 54°49' E 012°08'1 1.4
2019-Aug-17 18:30N 54°49' E 012°09'6 5.1
2019-Aug-17 17:20N 54°43' E 012°13'2 4.0
2019-Aug-17 16:52N 54°41' E 012°13'2 4.6
2019-Aug-17 16:30N 54°40' E 012°14'3 6.0
2019-Aug-17 16:00N 54°37' E 012°16'2 4.1
2019-Aug-17 15:30N 54°35' E 012°18'3 5.3
2019-Aug-17 14:59N 54°33' E 012°20'4 4.8
2019-Aug-17 14:13N 54°29' E 012°21'1 2.9
2019-Aug-17 14:00N 54°29' E 012°20'2 3.2
2019-Aug-17 13:29N 54°28' E 012°18'2 3.2
2019-Aug-17 13:00N 54°26' E 012°17'4 4.7
2019-Aug-17 12:16N 54°24' E 012°13'2 4.3
2019-Aug-17 11:53N 54°22' E 012°11'2 4.8
2019-Aug-17 11:29N 54°21' E 012°09'4 4.9
2019-Aug-17 10:39N 54°17' E 012°05'1 5.2
2019-Aug-17 10:30N 54°17' E 012°04'11 5.3
2019-Aug-17 08:22N 54°06' E 012°07'0 0.1
2019-Aug-17 06:58N 54°06' E 012°08'0 0.0
2019-Aug-17 04:25N 54°06' E 012°08'0 0.0
2019-Aug-17 01:13N 54°06' E 012°08'0 0.0
2019-Aug-16 23:13N 54°06' E 012°08'0 0.0
2019-Aug-16 22:55N 54°06' E 012°08'0 0.0
2019-Aug-16 21:28N 54°06' E 012°08'0 0.0
2019-Aug-16 20:22N 54°06' E 012°08'0 0.0
2019-Aug-16 19:58N 54°06' E 012°08'0 0.0
2019-Aug-16 19:28N 54°06' E 012°08'0 0.0
2019-Aug-16 17:52N 54°06' E 012°08'0 0.0
2019-Aug-16 16:25N 54°06' E 012°08'0 0.0
2019-Aug-16 14:58N 54°06' E 012°08'0 0.0
2019-Aug-16 12:29N 54°06' E 012°08'2 3.9
2019-Aug-16 12:00N 54°07' E 012°06'12 7.0
2019-Aug-16 10:14N 54°19' E 012°01'1 4.8
2019-Aug-16 10:00N 54°20' E 012°01'5 7.0
2019-Aug-16 09:18N 54°16' E 012°04'2 7.6
2019-Aug-16 08:59N 54°13' E 012°05'2 0.8
2019-Aug-16 05:44N 54°11' E 012°06'0 0.0
2019-Aug-16 05:29N 54°11' E 012°06'0 0.0
2019-Aug-16 01:59N 54°11' E 012°06'0 0.0
2019-Aug-16 01:20N 54°11' E 012°06'0 0.0
2019-Aug-15 23:44N 54°11' E 012°06'0 0.0
2019-Aug-15 23:29N 54°11' E 012°06'0 0.0
2019-Aug-15 21:35N 54°11' E 012°06'0 0.0
2019-Aug-15 20:29N 54°11' E 012°06'0 0.0
2019-Aug-15 19:59N 54°11' E 012°06'0 0.0
2019-Aug-15 18:44N 54°11' E 012°06'1 3.1
2019-Aug-15 18:30N 54°12' E 012°06'2 3.9
2019-Aug-15 17:54N 54°13' E 012°02'7 5.3
2019-Aug-15 16:31N 54°16' E 011°51'0 5.2
2019-Aug-15 16:28N 54°16' E 011°50'2 5.3
2019-Aug-15 16:00N 54°17' E 011°46'12 5.6
2019-Aug-15 13:54N 54°22' E 011°28'2 5.2
2019-Aug-15 13:28N 54°22' E 011°24'2 4.0
2019-Aug-15 13:00N 54°23' E 011°21'3 5.0
2019-Aug-15 12:30N 54°23' E 011°17'2 3.4
2019-Aug-15 12:00N 54°24' E 011°14'2 3.8
2019-Aug-15 11:30N 54°25' E 011°11'0 0.6
2019-Aug-15 10:59N 54°25' E 011°11'0 0.0
2019-Aug-15 10:29N 54°25' E 011°11'0 0.0
2019-Aug-15 09:53N 54°25' E 011°11'0 0.0
2019-Aug-15 09:23N 54°25' E 011°11'0 0.0
2019-Aug-15 08:59N 54°25' E 011°11'0 0.0
2019-Aug-15 08:20N 54°25' E 011°11'0 0.0
2019-Aug-15 07:59N 54°25' E 011°11'0 0.0
2019-Aug-15 07:26N 54°25' E 011°11'0 0.0
2019-Aug-15 06:53N 54°25' E 011°11'0 0.0
2019-Aug-15 06:29N 54°25' E 011°11'0 0.0
2019-Aug-15 05:47N 54°25' E 011°11'0 0.0
2019-Aug-15 05:20N 54°25' E 011°11'0 0.0
2019-Aug-15 04:53N 54°25' E 011°11'0 0.0
2019-Aug-15 04:29N 54°25' E 011°11'0 0.0
2019-Aug-15 03:56N 54°25' E 011°11'0 0.0
2019-Aug-15 03:26N 54°25' E 011°11'0 0.0
2019-Aug-15 02:59N 54°25' E 011°11'0 0.0
2019-Aug-15 02:20N 54°25' E 011°11'0 0.0
2019-Aug-15 01:59N 54°25' E 011°11'0 0.0
2019-Aug-15 01:26N 54°25' E 011°11'0 0.0
2019-Aug-15 00:50N 54°25' E 011°11'0 0.0
2019-Aug-15 00:23N 54°25' E 011°11'0 0.0
2019-Aug-14 23:44N 54°25' E 011°11'0 0.0
2019-Aug-14 23:26N 54°25' E 011°11'0 0.0
2019-Aug-14 22:56N 54°25' E 011°11'0 0.0
2019-Aug-14 22:26N 54°25' E 011°11'0 0.0
2019-Aug-14 21:59N 54°25' E 011°11'0 0.0
2019-Aug-14 21:14N 54°25' E 011°11'  

Dump ship's entire track history